Time;durP1;ratioP1;P1;durP2;ratioP2;P2;SDS_P1;SDS_P2;PMS_P1;PMS_P2;Temp;Humidity;BMP_temperature;BMP_pressure;BME280_temperature;BME280_humidity;BME280_pressure;Samples;Min_cycle;Max_cycle;Signal;HPM_P1;HPM_P2
2023/03/14 00:03:20;;;;;;;1.17;0.23;;;;;;;12.49;66.65;96141.94;8385036;28;20517;-67
2023/03/14 00:07:24;;;;;;;0.80;0.20;;;;;;;12.34;67.22;96146.59;8384520;28;20237;-67
2023/03/14 00:11:31;;;;;;;0.10;0.10;;;;;;;12.34;66.72;96141.41;8384586;28;20237;-67
2023/03/14 00:15:35;;;;;;;2.23;0.30;;;;;;;12.36;66.93;96146.47;8384637;28;20509;-67
2023/03/14 00:19:38;;;;;;;0.63;0.23;;;;;;;12.20;66.75;96163.25;8384415;28;20244;-67
2023/03/14 00:23:42;;;;;;;0.33;0.20;;;;;;;12.22;66.83;96174.38;8383897;28;20236;-67
2023/03/14 00:27:45;;;;;;;0.50;0.20;;;;;;;12.13;66.93;96175.09;8383378;28;20509;-67
2023/03/14 00:31:49;;;;;;;1.23;0.20;;;;;;;12.23;67.03;96188.97;8383774;28;20521;-67
2023/03/14 00:35:56;;;;;;;0.37;0.20;;;;;;;12.46;65.97;96202.72;8383803;28;20225;-69
2023/03/14 00:39:59;;;;;;;0.40;0.20;;;;;;;12.37;66.05;96202.63;8383563;28;20410;-67
2023/03/14 00:44:01;;;;;;;0.57;0.20;;;;;;;12.29;65.55;96209.25;8383323;28;20395;-67
2023/03/14 00:48:06;;;;;;;0.30;0.20;;;;;;;12.42;65.31;96203.91;8383270;28;20221;-69
2023/03/14 00:52:09;;;;;;;0.60;0.20;;;;;;;12.58;64.82;96205.28;8382086;28;20394;-68
2023/03/14 00:56:14;;;;;;;0.33;0.23;;;;;;;12.49;64.88;96173.09;8382720;28;20237;-68
2023/03/14 01:00:17;;;;;;;0.20;0.20;;;;;;;12.45;65.27;96205.44;8381674;28;20225;-68
2023/03/14 01:04:22;;;;;;;0.20;0.20;;;;;;;12.52;64.36;96201.41;8382828;28;20221;-68
2023/03/14 01:08:24;;;;;;;0.87;0.40;;;;;;;12.35;64.97;96204.53;8382516;28;20232;-67
2023/03/14 01:12:28;;;;;;;0.23;0.20;;;;;;;12.48;64.16;96212.97;8382459;28;20225;-68
2023/03/14 01:16:34;;;;;;;0.10;0.10;;;;;;;12.04;64.97;96206.94;8381932;28;20232;-68
2023/03/14 01:20:39;;;;;;;0.20;0.20;;;;;;;11.86;65.50;96188.41;8382251;28;20229;-68
2023/03/14 01:24:42;;;;;;;0.60;0.20;;;;;;;12.03;65.85;96181.94;8381316;28;20236;-68
2023/03/14 01:28:44;;;;;;;0.30;0.20;;;;;;;12.28;64.93;96173.88;8381461;28;20299;-68
2023/03/14 01:32:47;;;;;;;0.20;0.20;;;;;;;12.28;64.47;96160.91;8381865;28;20229;-68
2023/03/14 01:36:51;;;;;;;0.17;0.13;;;;;;;12.29;64.85;96159.94;8381446;28;20229;-68
2023/03/14 01:40:54;;;;;;;0.20;0.20;;;;;;;12.14;64.59;96153.38;8381630;28;20230;-68
2023/03/14 01:44:58;;;;;;;0.20;0.20;;;;;;;12.26;65.39;96154.16;8381160;28;20221;-68
2023/03/14 01:49:08;;;;;;;0.30;0.30;;;;;;;12.38;64.77;96171.34;8381125;28;20275;-68
2023/03/14 01:53:13;;;;;;;0.50;0.40;;;;;;;12.44;64.48;96167.44;8381017;28;20232;-68
2023/03/14 01:57:21;;;;;;;0.40;0.30;;;;;;;12.36;65.05;96167.25;8380435;28;20237;-68
2023/03/14 02:01:25;;;;;;;0.20;0.20;;;;;;;12.23;65.19;96163.03;8380558;28;20232;-67
2023/03/14 02:05:32;;;;;;;0.40;0.30;;;;;;;12.29;65.12;96167.72;8380488;28;20279;-67
2023/03/14 02:09:37;;;;;;;0.67;0.40;;;;;;;12.15;65.58;96165.41;8380453;28;20231;-68
2023/03/14 02:13:40;;;;;;;0.67;0.33;;;;;;;12.27;65.34;96151.44;8380468;28;20229;-67
2023/03/14 02:17:43;;;;;;;0.30;0.30;;;;;;;12.33;65.09;96134.56;8379666;28;20544;-68
2023/03/14 02:21:51;;;;;;;0.40;0.40;;;;;;;12.25;65.68;96136.94;8380271;28;20472;-68
2023/03/14 02:25:58;;;;;;;0.33;0.30;;;;;;;12.54;64.52;96113.00;8379889;28;20240;-67
2023/03/14 02:30:06;;;;;;;0.33;0.30;;;;;;;12.43;64.31;96119.91;8379881;28;20244;-68
2023/03/14 02:34:08;;;;;;;0.20;0.20;;;;;;;12.32;64.73;96106.97;8379711;28;20229;-67
2023/03/14 02:38:16;;;;;;;1.80;0.40;;;;;;;12.45;64.32;96101.59;8379747;28;20236;-68
2023/03/14 02:42:20;;;;;;;0.63;0.30;;;;;;;12.43;65.02;96099.13;8379809;28;20232;-68
2023/03/14 02:46:24;;;;;;;0.63;0.63;;;;;;;12.45;64.95;96093.78;8379271;28;20447;-68
2023/03/14 02:50:30;;;;;;;1.13;0.37;;;;;;;12.38;64.45;96093.50;8379560;28;20228;-67
2023/03/14 02:54:33;;;;;;;0.27;0.20;;;;;;;12.45;64.19;96073.88;8379291;28;20529;-68
2023/03/14 02:58:36;;;;;;;0.53;0.30;;;;;;;12.38;65.00;96079.69;8378958;28;20232;-67
2023/03/14 03:02:40;;;;;;;0.20;0.20;;;;;;;12.55;64.42;96093.91;8378953;28;20240;-68
2023/03/14 03:06:43;;;;;;;0.23;0.23;;;;;;;12.63;63.86;96096.69;8378605;28;20231;-68
2023/03/14 03:10:46;;;;;;;0.27;0.20;;;;;;;12.33;64.63;96062.69;8379047;28;20559;-67
2023/03/14 03:14:48;;;;;;;0.33;0.33;;;;;;;12.67;63.53;96105.84;8378747;28;20533;-68
2023/03/14 03:18:52;;;;;;;0.97;0.27;;;;;;;12.51;63.93;96082.94;8378478;28;20230;-68
2023/03/14 03:22:55;;;;;;;0.30;0.30;;;;;;;12.64;63.59;96086.16;8378232;28;20232;-68
2023/03/14 03:26:58;;;;;;;0.30;0.20;;;;;;;12.32;64.36;96055.06;8378422;28;20422;-68
2023/03/14 03:31:07;;;;;;;0.27;0.20;;;;;;;12.47;63.80;96068.53;8378512;28;20267;-68
2023/03/14 03:35:12;;;;;;;0.40;0.30;;;;;;;12.56;63.41;96060.00;8378323;28;20298;-68
2023/03/14 03:39:15;;;;;;;0.77;0.30;;;;;;;12.55;63.26;96053.16;8378492;28;20543;-68
2023/03/14 03:43:18;;;;;;;0.50;0.27;;;;;;;12.48;63.30;96065.00;8378236;28;20432;-68
2023/03/14 03:47:20;;;;;;;1.30;0.30;;;;;;;12.25;63.64;96053.91;8378184;28;20237;-67
2023/03/14 03:51:25;;;;;;;0.13;0.10;;;;;;;12.58;63.05;96063.28;8378278;28;20224;-68
2023/03/14 03:55:29;;;;;;;0.50;0.23;;;;;;;12.47;63.01;96053.81;8377946;28;20236;-67
2023/03/14 03:59:32;;;;;;;1.17;0.20;;;;;;;12.38;63.68;96059.75;8377596;28;20247;-68
2023/03/14 04:03:34;;;;;;;0.30;0.30;;;;;;;12.31;63.67;96040.41;8378163;28;20224;-68
2023/03/14 04:07:38;;;;;;;0.17;0.17;;;;;;;11.94;64.71;96056.38;8377898;28;20475;-67
2023/03/14 04:11:42;;;;;;;0.20;0.20;;;;;;;11.99;65.29;96032.66;8377601;28;20222;-68
2023/03/14 04:15:44;;;;;;;0.30;0.20;;;;;;;12.26;63.87;96004.47;8377709;28;20236;-67
2023/03/14 04:19:49;;;;;;;0.53;0.20;;;;;;;12.38;63.30;96009.59;8377665;28;20240;-67
2023/03/14 04:23:54;;;;;;;0.73;0.33;;;;;;;12.17;63.34;96023.41;8377758;28;20229;-68
2023/03/14 04:27:57;;;;;;;0.37;0.37;;;;;;;12.01;63.47;96008.22;8377452;28;20244;-66
2023/03/14 04:32:00;;;;;;;1.17;0.47;;;;;;;11.84;65.12;96013.94;8377820;28;20240;-67
2023/03/14 04:36:03;;;;;;;1.40;0.30;;;;;;;12.13;63.56;96004.66;8383337;28;20236;-68
2023/03/14 04:40:09;;;;;;;0.50;0.50;;;;;;;12.28;62.91;96009.50;8383174;28;20257;-68
2023/03/14 04:44:12;;;;;;;0.50;0.50;;;;;;;12.23;63.48;96024.66;8383267;28;20331;-68
2023/03/14 04:48:14;;;;;;;0.60;0.60;;;;;;;12.25;63.58;96018.38;8383187;28;20229;-67
2023/03/14 04:52:19;;;;;;;0.40;0.40;;;;;;;12.10;63.38;96017.06;8383198;28;20222;-68
2023/03/14 04:56:23;;;;;;;0.57;0.40;;;;;;;12.17;63.61;96019.97;8382854;28;20378;-68
2023/03/14 05:00:26;;;;;;;1.60;0.40;;;;;;;12.15;62.94;96014.06;8382592;28;20241;-68
2023/03/14 05:04:29;;;;;;;0.43;0.40;;;;;;;12.27;63.07;96018.28;8382483;28;20232;-68
2023/03/14 05:08:31;;;;;;;1.13;0.40;;;;;;;11.83;64.21;96018.31;8382340;28;20237;-68
2023/03/14 05:12:35;;;;;;;0.20;0.20;;;;;;;12.12;63.17;96012.56;8382270;28;20279;-68
2023/03/14 05:16:40;;;;;;;6.30;5.70;;;;;;;12.12;63.04;96013.38;8382141;28;20229;-68
2023/03/14 05:20:43;;;;;;;0.30;0.30;;;;;;;11.85;62.71;95943.78;8381456;28;20263;-68
2023/03/14 05:24:46;;;;;;;0.30;0.30;;;;;;;12.27;62.08;96003.50;8382014;28;20236;-68
2023/03/14 05:28:50;;;;;;;0.30;0.30;;;;;;;12.05;62.75;96001.88;8381792;28;20578;-68
2023/03/14 05:32:53;;;;;;;0.60;0.60;;;;;;;12.29;61.85;95993.81;8381834;28;20240;-68
2023/03/14 05:36:56;;;;;;;1.23;0.40;;;;;;;12.04;62.86;95991.63;8381636;28;20229;-69
2023/03/14 05:40:59;;;;;;;0.23;0.23;;;;;;;12.26;62.48;95985.47;8381391;28;20237;-68
2023/03/14 05:45:04;;;;;;;0.20;0.20;;;;;;;12.22;62.01;95976.28;8380532;28;20221;-68
2023/03/14 05:49:06;;;;;;;0.30;0.30;;;;;;;12.23;62.19;95975.34;8380690;28;20229;-67
2023/03/14 05:53:09;;;;;;;0.30;0.30;;;;;;;12.27;61.77;95967.19;8381042;28;20228;-67
2023/03/14 05:57:13;;;;;;;0.90;0.40;;;;;;;12.25;61.50;95953.50;8380872;28;20234;-67
2023/03/14 06:01:17;;;;;;;0.97;0.40;;;;;;;12.36;61.38;95954.41;8380301;28;20248;-69
2023/03/14 06:05:20;;;;;;;0.50;0.50;;;;;;;12.33;62.06;95952.88;8380419;28;20232;-68
2023/03/14 06:09:23;;;;;;;0.63;0.60;;;;;;;11.80;62.96;95951.13;8380646;28;20528;-67
2023/03/14 06:13:25;;;;;;;1.67;0.40;;;;;;;12.01;62.34;95963.31;8380541;28;20230;-68
2023/03/14 06:17:30;;;;;;;1.90;1.80;;;;;;;12.19;62.00;95972.19;8380518;28;20221;-68
2023/03/14 06:21:33;;;;;;;0.60;0.60;;;;;;;12.05;62.28;95969.91;8380460;28;20454;-68
2023/03/14 06:25:36;;;;;;;0.40;0.40;;;;;;;11.72;63.50;95982.03;8380323;28;20221;-68
2023/03/14 06:29:39;;;;;;;0.77;0.40;;;;;;;11.95;62.29;95972.41;8380037;28;20429;-68
2023/03/14 06:33:44;;;;;;;0.73;0.50;;;;;;;12.08;62.11;95964.47;8379399;28;20237;-68
2023/03/14 06:37:47;;;;;;;1.27;0.50;;;;;;;12.10;61.46;95968.56;8379842;28;20237;-68
2023/03/14 06:41:49;;;;;;;1.10;0.73;;;;;;;12.19;61.55;95972.19;8379534;28;20229;-69
2023/03/14 06:45:52;;;;;;;1.33;0.90;;;;;;;12.22;61.24;95969.34;8379611;28;20540;-68
2023/03/14 06:49:56;;;;;;;1.50;0.80;;;;;;;12.44;60.23;95978.75;8379509;28;20248;-67
2023/03/14 06:53:59;;;;;;;0.50;0.50;;;;;;;12.06;61.17;95984.53;8379462;28;20256;-68
2023/03/14 06:58:02;;;;;;;0.70;0.60;;;;;;;12.29;61.17;95975.66;8378055;28;20228;-68
2023/03/14 07:02:05;;;;;;;1.17;0.80;;;;;;;12.27;60.74;95980.16;8379190;28;20248;-69
2023/03/14 07:06:09;;;;;;;1.53;0.77;;;;;;;12.25;60.65;95982.06;8378910;28;20236;-68
2023/03/14 07:10:12;;;;;;;1.53;0.80;;;;;;;12.35;60.91;95982.13;8378755;28;20616;-68
2023/03/14 07:14:15;;;;;;;1.27;0.90;;;;;;;12.21;60.49;95959.09;8379014;28;20225;-68
2023/03/14 07:18:17;;;;;;;1.17;0.80;;;;;;;12.54;60.06;95968.41;8378685;28;20249;-68
2023/03/14 07:22:22;;;;;;;2.03;0.70;;;;;;;12.75;58.99;95955.41;8378675;28;20245;-68
2023/03/14 07:26:25;;;;;;;1.33;0.67;;;;;;;12.66;58.85;95964.81;8378690;28;20222;-68
2023/03/14 07:30:27;;;;;;;1.30;0.80;;;;;;;12.78;58.29;95973.31;8378774;28;20284;-68
2023/03/14 07:34:30;;;;;;;1.20;0.80;;;;;;;12.88;58.11;95971.56;8378723;28;20232;-68
2023/03/14 07:38:34;;;;;;;2.80;1.20;;;;;;;12.65;58.70;95972.72;8378386;28;20221;-68
2023/03/14 07:42:37;;;;;;;3.43;1.17;;;;;;;12.77;58.04;95976.06;8378351;28;20237;-68
2023/03/14 07:46:40;;;;;;;2.97;1.30;;;;;;;13.13;57.57;95976.47;8378580;28;20528;-69
2023/03/14 07:50:42;;;;;;;2.10;1.00;;;;;;;13.39;55.89;95977.66;8378205;28;20510;-68
2023/03/14 07:54:46;;;;;;;2.80;1.10;;;;;;;13.53;55.64;95983.41;8378099;28;20238;-68
2023/03/14 07:58:49;;;;;;;2.70;1.07;;;;;;;14.59;53.04;95984.34;8378171;28;20234;-67
2023/03/14 08:02:52;;;;;;;1.93;0.83;;;;;;;14.45;53.02;95978.59;8378332;28;20254;-68
2023/03/14 08:06:55;;;;;;;1.67;0.80;;;;;;;14.59;52.84;95977.34;8379144;28;20299;-69
2023/03/14 08:11:04;;;;;;;3.73;0.93;;;;;;;13.96;54.00;95988.25;8384742;28;20236;-68
2023/03/14 08:15:08;;;;;;;2.63;1.00;;;;;;;13.74;54.13;95983.31;8384524;28;20520;-68
2023/03/14 08:19:11;;;;;;;3.87;1.00;;;;;;;13.82;54.22;95978.22;8384241;28;20409;-68
2023/03/14 08:23:13;;;;;;;2.40;0.80;;;;;;;13.79;53.94;95968.13;8384190;28;20247;-68
2023/03/14 08:27:18;;;;;;;2.77;1.00;;;;;;;13.70;54.28;95969.75;8383791;28;20235;-69
2023/03/14 08:31:21;;;;;;;2.67;0.90;;;;;;;13.85;52.96;95964.97;8383763;28;20525;-68
2023/03/14 08:35:25;;;;;;;2.63;0.83;;;;;;;14.14;52.27;95959.72;8383809;28;20231;-68
2023/03/14 08:39:27;;;;;;;1.80;0.80;;;;;;;14.49;51.49;95963.53;8383402;28;20434;-69
2023/03/14 08:43:34;;;;;;;1.93;0.70;;;;;;;15.67;48.74;95962.00;8383542;28;20235;-68
2023/03/14 08:47:37;;;;;;;1.37;0.70;;;;;;;14.68;50.19;95965.28;8383212;28;20240;-69
2023/03/14 08:51:40;;;;;;;1.80;0.97;;;;;;;15.11;49.45;95961.25;8383007;28;20244;-69
2023/03/14 08:55:45;;;;;;;2.27;0.60;;;;;;;16.18;46.65;95954.47;8382495;28;20229;-68
2023/03/14 08:59:49;;;;;;;1.27;0.83;;;;;;;15.80;47.22;95946.00;8382739;28;20558;-69
2023/03/14 09:03:52;;;;;;;1.77;0.80;;;;;;;15.58;48.73;95942.84;8382772;28;20234;-69
2023/03/14 09:07:55;;;;;;;1.23;0.70;;;;;;;14.94;49.57;95941.16;8382759;28;20525;-69
2023/03/14 09:11:58;;;;;;;2.53;0.80;;;;;;;15.01;49.29;95948.25;8382522;28;20235;-69
2023/03/14 09:16:02;;;;;;;1.63;0.63;;;;;;;14.44;50.03;95944.88;8382363;28;20703;-69
2023/03/14 09:20:08;;;;;;;2.30;0.80;;;;;;;14.58;49.41;95957.50;8381444;28;20232;-69
2023/03/14 09:24:11;;;;;;;1.83;0.73;;;;;;;14.54;50.27;95950.88;8382225;28;20237;-69
2023/03/14 09:28:14;;;;;;;3.37;0.93;;;;;;;14.57;49.58;95948.03;8382016;28;20401;-69
2023/03/14 09:32:18;;;;;;;1.17;0.70;;;;;;;14.25;50.15;95951.75;8382000;28;20231;-69
2023/03/14 09:36:21;;;;;;;2.33;0.90;;;;;;;14.34;49.41;95949.31;8381738;28;20318;-69
2023/03/14 09:40:24;;;;;;;2.03;0.50;;;;;;;14.20;50.17;95946.19;8381590;28;20239;-69
2023/03/14 09:44:30;;;;;;;1.23;0.50;;;;;;;14.39;49.96;95954.88;8381358;28;20228;-69
2023/03/14 09:48:34;;;;;;;1.87;0.60;;;;;;;14.31;50.06;95953.00;8381298;28;20221;-69
2023/03/14 09:52:39;;;;;;;0.70;0.40;;;;;;;13.93;50.19;95899.22;8381317;28;20488;-69
2023/03/14 09:56:42;;;;;;;1.87;0.70;;;;;;;13.89;50.55;95950.72;8380520;28;20466;-69
2023/03/14 10:00:45;;;;;;;1.10;0.40;;;;;;;14.04;50.28;95949.34;8380618;28;20562;-69
2023/03/14 10:04:50;;;;;;;1.73;0.50;;;;;;;13.93;50.47;95954.69;8380746;28;20234;-69
2023/03/14 10:08:53;;;;;;;1.00;0.50;;;;;;;14.21;50.85;95947.00;8380682;28;20543;-70
2023/03/14 10:12:57;;;;;;;1.07;0.40;;;;;;;13.89;51.19;95951.53;8380573;28;20239;-69
2023/03/14 10:17:09;;;;;;;2.37;0.50;;;;;;;14.07;50.11;95949.06;8380662;28;20235;-69
2023/03/14 10:21:27;;;;;;;1.43;0.60;;;;;;;15.13;58.75;95951.47;8380206;28;20240;-68
2023/03/14 10:25:31;;;;;;;1.67;0.70;;;;;;;14.31;51.94;95952.19;8379789;28;20235;-68
2023/03/14 10:29:34;;;;;;;0.60;0.40;;;;;;;14.41;51.22;95948.59;8380201;28;20232;-68
2023/03/14 10:33:38;;;;;;;1.13;0.50;;;;;;;15.54;47.90;95948.53;8380308;28;20248;-68
2023/03/14 10:37:52;;;;;;;0.90;0.50;;;;;;;15.89;47.60;95934.66;8379228;28;20230;-68
2023/03/14 10:41:57;;;;;;;0.70;0.40;;;;;;;15.69;47.05;95952.25;8379318;28;20247;-69
2023/03/14 10:46:06;;;;;;;0.93;0.50;;;;;;;15.86;47.48;95941.97;8379153;28;20246;-69
2023/03/14 10:50:24;;;;;;;0.50;0.30;;;;;;;15.67;47.37;95953.34;8379144;28;20231;-68
2023/03/14 10:54:33;;;;;;;0.53;0.40;;;;;;;17.23;44.05;95952.63;8378994;28;20325;-69
2023/03/14 10:58:40;;;;;;;1.10;0.57;;;;;;;16.07;45.97;95947.72;8379100;28;20257;-69
2023/03/14 11:03:02;;;;;;;1.37;0.50;;;;;;;17.74;43.65;95950.78;8378601;28;20225;-69
2023/03/14 11:07:09;;;;;;;1.33;0.40;;;;;;;17.20;44.14;95951.13;8378815;28;20235;-69
2023/03/14 11:11:19;;;;;;;0.40;0.20;;;;;;;16.95;44.06;95939.78;8378703;28;20562;-69
2023/03/14 11:15:26;;;;;;;0.40;0.30;;;;;;;17.18;43.94;95953.09;8378425;28;20243;-69
2023/03/14 11:19:58;;;;;;;1.13;0.20;;;;;;;16.57;45.49;95947.06;8378738;28;20228;-69
2023/03/14 11:24:16;;;;;;;1.03;0.23;;;;;;;16.75;45.33;95947.00;8378216;28;20504;-69
2023/03/14 11:28:23;;;;;;;0.40;0.20;;;;;;;16.08;46.10;95944.13;8378692;28;20523;-69
2023/03/14 11:32:37;;;;;;;0.63;0.20;;;;;;;16.08;45.55;95938.06;8378985;28;20299;-68
2023/03/14 11:36:44;;;;;;;0.60;0.30;;;;;;;16.36;45.25;95928.31;8378596;28;20523;-69
2023/03/14 11:40:49;;;;;;;1.20;0.30;;;;;;;16.41;45.89;95919.06;8378124;28;20231;-68
2023/03/14 11:44:58;;;;;;;0.40;0.30;;;;;;;15.79;46.01;95859.06;8384629;28;20234;-68
2023/03/14 11:49:04;;;;;;;0.20;0.20;;;;;;;15.51;47.38;95917.50;8384901;28;20411;-68
2023/03/14 11:53:12;;;;;;;0.20;0.20;;;;;;;16.06;46.75;95919.13;8384729;28;20332;-68
2023/03/14 11:57:16;;;;;;;0.30;0.20;;;;;;;15.82;47.35;95920.56;8384483;28;20581;-68
2023/03/14 12:01:22;;;;;;;0.20;0.20;;;;;;;16.88;45.11;95915.22;8384510;28;20229;-68
2023/03/14 12:05:57;;;;;;;0.83;0.20;;;;;;;16.69;44.76;95912.81;8384127;28;20227;-68
2023/03/14 12:10:00;;;;;;;0.10;0.10;;;;;;;16.23;45.73;95910.44;8371399;28;20230;-68
2023/03/14 12:14:03;;;;;;;0.30;0.20;;;;;;;15.89;46.32;95905.13;8384393;28;20235;-68
2023/03/14 12:18:20;;;;;;;1.13;0.20;;;;;;;15.72;46.00;95912.78;8384188;28;20230;-69
2023/03/14 12:22:27;;;;;;;0.20;0.20;;;;;;;15.83;45.81;95902.16;8384080;28;20242;-69
2023/03/14 12:26:53;;;;;;;0.97;0.20;;;;;;;16.29;45.15;95895.94;8383844;28;20223;-68
2023/03/14 12:30:55;;;;;;;0.63;0.30;;;;;;;16.09;45.94;95900.53;8383568;28;20270;-69
2023/03/14 12:35:08;;;;;;;0.77;0.30;;;;;;;15.73;46.29;95887.53;8383386;28;20235;-69
2023/03/14 12:39:17;;;;;;;0.30;0.20;;;;;;;15.04;47.37;95890.63;8383481;28;20523;-68
2023/03/14 12:43:28;;;;;;;0.83;0.30;;;;;;;15.17;48.75;95879.88;8383030;28;20226;-69
2023/03/14 12:48:03;;;;;;;1.03;0.20;;;;;;;15.38;48.30;95910.03;8383058;28;20232;-68
2023/03/14 12:52:14;;;;;;;0.33;0.10;;;;;;;14.60;52.83;95928.69;8383173;28;20326;-69
2023/03/14 12:56:25;;;;;;;1.20;0.23;;;;;;;14.42;54.56;95924.19;8381653;28;20440;-68
2023/03/14 13:00:32;;;;;;;0.37;0.20;;;;;;;14.28;55.26;95930.66;8382755;28;20230;-68
2023/03/14 13:04:38;;;;;;;0.10;0.10;;;;;;;14.19;54.99;95939.31;8380988;28;20229;-68
2023/03/14 13:08:45;;;;;;;0.20;0.10;;;;;;;14.40;54.19;95935.72;8381669;28;20296;-68
2023/03/14 13:12:53;;;;;;;0.30;0.10;;;;;;;13.87;55.79;95948.25;8382552;28;20477;-68
2023/03/14 13:16:56;;;;;;;0.20;0.10;;;;;;;13.69;56.69;95945.53;8382510;28;20227;-68
2023/03/14 13:21:02;;;;;;;0.13;0.10;;;;;;;13.66;57.87;95947.56;8382109;28;20256;-68
2023/03/14 13:25:11;;;;;;;0.07;0.07;;;;;;;13.55;60.06;95965.91;8381915;28;20273;-68
2023/03/14 13:29:20;;;;;;;0.20;0.10;;;;;;;13.52;59.97;95954.00;8381909;28;20231;-68
2023/03/14 13:33:24;;;;;;;0.63;0.10;;;;;;;13.38;60.69;95963.00;8382125;28;20233;-68
2023/03/14 13:37:27;;;;;;;0.20;0.20;;;;;;;13.33;60.88;95970.41;8381773;28;20226;-68
2023/03/14 13:41:31;;;;;;;0.20;0.20;;;;;;;13.46;60.79;95975.31;8381778;28;20246;-68
2023/03/14 13:45:44;;;;;;;1.20;0.20;;;;;;;13.50;61.14;95971.53;8381749;28;20471;-68
2023/03/14 13:49:47;;;;;;;0.30;0.13;;;;;;;13.42;61.60;95981.75;8381210;28;20431;-68
2023/03/14 13:53:52;;;;;;;0.17;0.17;;;;;;;12.96;62.26;95970.09;8380884;28;20232;-68
2023/03/14 13:57:56;;;;;;;0.47;0.20;;;;;;;13.26;63.13;95990.84;8380979;28;20246;-68
2023/03/14 14:02:00;;;;;;;1.10;0.30;;;;;;;12.91;64.17;95999.91;8380741;28;20236;-68
2023/03/14 14:06:03;;;;;;;0.30;0.30;;;;;;;12.70;64.13;96012.13;8380395;28;20226;-68
2023/03/14 14:10:07;;;;;;;0.73;0.20;;;;;;;12.62;66.41;96028.34;8380499;28;20230;-67
2023/03/14 14:14:13;;;;;;;0.20;0.20;;;;;;;12.23;65.50;96025.47;8380511;28;20233;-68
2023/03/14 14:18:18;;;;;;;0.20;0.20;;;;;;;12.41;65.70;96066.44;8380443;28;20221;-68
2023/03/14 14:22:21;;;;;;;0.13;0.13;;;;;;;11.97;65.92;96076.06;8380236;28;20229;-68
2023/03/14 14:26:25;;;;;;;1.17;0.20;;;;;;;11.84;66.35;96099.53;8380107;28;20232;-68
2023/03/14 14:30:33;;;;;;;0.63;0.10;;;;;;;11.66;65.96;96102.63;8379967;28;20516;-68
2023/03/14 14:34:42;;;;;;;1.97;0.60;;;;;;;11.64;66.49;96178.88;8380215;28;20529;-68
2023/03/14 14:38:51;;;;;;;0.23;0.23;;;;;;;10.73;64.99;96167.53;8379557;28;20237;-67
2023/03/14 14:42:54;;;;;;;0.33;0.30;;;;;;;11.05;64.64;96203.19;8379565;28;20282;-67
2023/03/14 14:46:58;;;;;;;0.70;0.27;;;;;;;11.15;62.97;96219.69;8380006;28;20228;-68
2023/03/14 14:51:04;;;;;;;1.50;0.50;;;;;;;10.99;63.83;96229.56;8380062;28;20236;-68
2023/03/14 14:55:17;;;;;;;0.40;0.30;;;;;;;10.66;63.36;96260.38;8379149;28;20291;-68
2023/03/14 14:59:27;;;;;;;0.23;0.23;;;;;;;10.75;63.71;96254.53;8379617;28;20520;-68
2023/03/14 15:03:33;;;;;;;0.20;0.20;;;;;;;10.87;62.99;96286.50;8379248;28;20426;-67
2023/03/14 15:07:36;;;;;;;0.33;0.17;;;;;;;10.78;63.30;96292.31;8379517;28;20225;-68
2023/03/14 15:11:39;;;;;;;0.30;0.30;;;;;;;10.74;63.40;96290.91;8378557;28;20334;-68
2023/03/14 15:15:42;;;;;;;1.30;0.20;;;;;;;11.08;63.48;96315.19;8378358;28;20224;-68
2023/03/14 15:19:47;;;;;;;0.30;0.30;;;;;;;11.05;63.51;96323.16;8378785;28;20251;-68
2023/03/14 15:23:50;;;;;;;0.47;0.47;;;;;;;11.12;62.98;96346.88;8380031;28;20240;-68
2023/03/14 15:27:52;;;;;;;0.80;0.70;;;;;;;11.31;63.63;96367.09;8378692;28;20229;-68
2023/03/14 15:31:55;;;;;;;0.83;0.83;;;;;;;10.89;63.70;96383.03;8378780;28;20290;-68
2023/03/14 15:36:00;;;;;;;0.80;0.80;;;;;;;10.73;62.06;96391.03;8378667;28;20229;-68
2023/03/14 15:40:11;;;;;;;1.07;0.83;;;;;;;10.54;61.58;96375.94;8378587;28;20217;-69
2023/03/14 15:44:14;;;;;;;1.10;1.00;;;;;;;10.77;61.76;96414.94;8378110;28;20267;-68
2023/03/14 15:48:18;;;;;;;1.10;1.00;;;;;;;10.72;61.93;96404.94;8378161;28;20225;-68
2023/03/14 15:52:22;;;;;;;1.43;1.27;;;;;;;11.02;61.73;96441.72;8378292;28;20521;-68
2023/03/14 15:56:27;;;;;;;1.43;1.00;;;;;;;10.84;61.24;96436.09;8377898;28;20408;-68
2023/03/14 16:00:34;;;;;;;1.43;1.20;;;;;;;10.50;61.76;96448.75;8378075;28;20231;-68
2023/03/14 16:04:37;;;;;;;1.47;1.23;;;;;;;10.52;61.84;96419.22;8377844;28;20225;-68
2023/03/14 16:08:41;;;;;;;2.60;1.20;;;;;;;10.81;61.29;96457.81;8378051;28;20301;-68
2023/03/14 16:12:44;;;;;;;2.00;1.30;;;;;;;10.91;61.70;96476.16;8377375;28;20428;-68
2023/03/14 16:16:47;;;;;;;3.00;1.87;;;;;;;11.07;61.40;96478.50;8377750;28;20233;-68
2023/03/14 16:20:57;;;;;;;1.70;1.30;;;;;;;11.11;61.78;96487.72;8377861;28;20582;-68
2023/03/14 16:25:01;;;;;;;1.63;1.37;;;;;;;11.04;61.83;96489.91;8377624;28;20240;-68
2023/03/14 16:29:04;;;;;;;1.87;1.23;;;;;;;10.72;59.74;96516.25;8380499;28;20228;-68
2023/03/14 16:33:10;;;;;;;2.07;1.40;;;;;;;10.24;60.16;96512.56;8384151;28;20317;-69
2023/03/14 16:37:14;;;;;;;1.37;1.03;;;;;;;10.42;58.34;96516.56;8383876;28;20300;-68
2023/03/14 16:41:20;;;;;;;1.53;1.00;;;;;;;10.17;57.81;96518.16;8383663;28;20227;-68
2023/03/14 16:45:22;;;;;;;1.63;1.10;;;;;;;10.45;57.50;96541.41;8383661;28;20231;-68
2023/03/14 16:49:25;;;;;;;0.90;0.80;;;;;;;10.35;57.65;96547.19;8383504;28;20232;-67
2023/03/14 16:53:29;;;;;;;1.60;1.13;;;;;;;10.43;56.96;96551.84;8383483;28;20230;-69
2023/03/14 16:57:35;;;;;;;0.87;0.60;;;;;;;10.35;55.74;96557.53;8382688;28;20231;-69
2023/03/14 17:01:41;;;;;;;1.73;0.60;;;;;;;10.14;55.01;96566.69;8383115;28;20274;-69
2023/03/14 17:05:52;;;;;;;1.13;1.00;;;;;;;10.18;54.28;96596.59;8382565;28;20239;-69
2023/03/14 17:09:55;;;;;;;0.83;0.70;;;;;;;10.30;53.98;96598.44;8382737;28;20233;-69
2023/03/14 17:13:59;;;;;;;2.97;1.13;;;;;;;10.36;52.74;96610.97;8382207;28;20243;-69
2023/03/14 17:18:02;;;;;;;3.57;1.30;;;;;;;10.18;53.25;96651.75;8381888;28;20233;-69
2023/03/14 17:22:05;;;;;;;0.50;0.50;;;;;;;9.14;59.80;96669.31;8382183;28;20226;-69
2023/03/14 17:26:25;;;;;;;0.40;0.40;;;;;;;8.72;61.25;96678.66;8382384;28;20512;-69
2023/03/14 17:30:29;;;;;;;0.60;0.60;;;;;;;9.15;59.72;96670.97;8381891;28;20641;-68
2023/03/14 17:34:32;;;;;;;0.60;0.33;;;;;;;9.06;60.71;96692.16;8381288;28;20231;-69
2023/03/14 17:38:35;;;;;;;0.77;0.77;;;;;;;9.11;60.08;96710.81;8380807;28;20229;-69
2023/03/14 17:42:37;;;;;;;0.60;0.60;;;;;;;9.22;60.48;96723.13;8380918;28;20302;-68
2023/03/14 17:46:42;;;;;;;0.60;0.60;;;;;;;8.56;61.53;96707.06;8381421;28;20433;-68
2023/03/14 17:50:46;;;;;;;1.00;1.00;;;;;;;9.15;60.82;96722.63;8381302;28;20229;-68
2023/03/14 17:54:49;;;;;;;1.70;0.80;;;;;;;9.38;59.72;96734.19;8381168;28;20296;-67
2023/03/14 17:58:53;;;;;;;0.87;0.60;;;;;;;9.24;60.59;96741.94;8381130;28;20233;-68
2023/03/14 18:02:58;;;;;;;0.80;0.80;;;;;;;9.76;58.64;96753.50;8381211;28;20551;-68
2023/03/14 18:07:04;;;;;;;1.50;1.17;;;;;;;9.41;59.48;96761.63;8380932;28;20246;-68
2023/03/14 18:11:07;;;;;;;1.10;1.00;;;;;;;9.37;59.21;96776.47;8380121;28;20237;-67
2023/03/14 18:15:11;;;;;;;1.40;1.30;;;;;;;9.53;59.08;96793.66;8379928;28;20231;-70
2023/03/14 18:19:16;;;;;;;1.50;1.27;;;;;;;9.73;58.59;96813.19;8380872;28;20416;-67
2023/03/14 18:23:21;;;;;;;1.80;1.40;;;;;;;9.89;57.62;96803.56;8380565;28;20240;-68
2023/03/14 18:27:24;;;;;;;1.30;1.20;;;;;;;9.63;58.85;96833.53;8386329;28;20486;-68
2023/03/14 18:31:27;;;;;;;1.53;1.43;;;;;;;9.73;58.74;96836.44;8380096;28;20226;-68
2023/03/14 18:35:32;;;;;;;2.03;1.40;;;;;;;9.77;58.06;96845.69;8380082;28;20414;-68
2023/03/14 18:39:35;;;;;;;2.80;1.60;;;;;;;9.92;57.83;96849.94;8379874;28;20607;-67
2023/03/14 18:43:37;;;;;;;1.60;1.50;;;;;;;9.85;57.59;96868.50;8379815;28;20238;-68
2023/03/14 18:47:40;;;;;;;1.53;1.30;;;;;;;10.01;57.49;96889.94;8379447;28;20518;-67
2023/03/14 18:51:44;;;;;;;2.40;1.93;;;;;;;9.96;57.13;96892.81;8378256;28;20238;-68
2023/03/14 18:55:47;;;;;;;1.60;1.50;;;;;;;9.90;57.42;96898.34;8379263;28;20246;-68
2023/03/14 18:59:51;;;;;;;1.50;1.40;;;;;;;10.05;57.03;96906.09;8379360;28;20232;-67
2023/03/14 19:03:54;;;;;;;1.43;1.33;;;;;;;10.02;56.64;96901.13;8379403;28;20526;-68
2023/03/14 19:07:58;;;;;;;5.20;1.40;;;;;;;12.65;72.78;96918.88;8379046;28;20229;-67
2023/03/14 19:12:01;;;;;;;5.13;1.70;;;;;;;12.79;61.04;96904.09;8378905;28;20232;-67
2023/03/14 19:16:06;;;;;;;2.73;1.67;;;;;;;11.39;54.69;96918.66;8379051;28;20245;-68